KTTN/TTN METAR and TAF weather

Enter ICAO airport designator
Station Type Date Time Source
KTTN METAR 2020/01/21 17:53 UTC NOAA

KTTN 211753Z 34011G16KT 10SM CLR 00/M14 A3042 RMK AO2 SLP296 T00001144 10000 21089 58020


Station Type Date Time Source
KTTN Decoded METAR 2020/01/21 17:53 UTC NOAA

TRENTON MERCER COUNTY AIRPORT , NJ, United States (KTTN) 40-17N 074-49W 59M
Jan 21, 2020 - 12:53 PM EST / 2020.01.21 1753 UTC
Wind: from the NNW (340 degrees) at 13 MPH (11 KT) gusting to 18 MPH (16 KT):0
Visibility: 10 mile(s):0
Sky conditions: clear
Temperature: 32.0 F (0.0 C)
Windchill: 23 F (-5 C):1
Dew Point: 6.1 F (-14.4 C)
Relative Humidity: 32%
Pressure (altimeter): 30.42 in. Hg (1030 hPa)
Pressure tendency: 0.06 inches (2.0 hPa) lower than three hours ago
ob: KTTN 211753Z 34011G16KT 10SM CLR 00/M14 A3042 RMK AO2 SLP296 T00001144 10000 21089 58020
cycle: 18

Station Type Date Time Source
KTTN TAF 2020/01/21 18:24 UTC NOAA

TAF KTTN 211722Z 2118/2218 34010KT P6SM SKC
FM212300 VRB03KT P6SM SCT250
FM221400 36005KT P6SM SKC
FM221700 29005KT P6SM SKC

Example: see airport list